Time;durP1;ratioP1;P1;durP2;ratioP2;P2;SDS_P1;SDS_P2;PMS_P1;PMS_P2;Temp;Humidity;BMP_temperature;BMP_pressure;BME280_temperature;BME280_humidity;BME280_pressure;Samples;Min_cycle;Max_cycle;Signal;HPM_P1;HPM_P2
2021/12/12 00:01:42;;;;;;;19.92;10.30;;;;;;;2.45;100.00;101925.50;5079060;28;20036;-78
2021/12/12 00:04:13;;;;;;;23.77;10.65;;;;;;;2.46;100.00;101921.13;5086463;28;20024;-79
2021/12/12 00:07:00;;;;;;;22.27;10.10;;;;;;;2.46;100.00;101921.97;5068846;28;20359;-78
2021/12/12 00:09:31;;;;;;;24.05;9.60;;;;;;;2.47;100.00;101918.50;5069544;28;20029;-78
2021/12/12 00:11:59;;;;;;;22.70;10.75;;;;;;;2.47;100.00;101917.63;5086265;28;20032;-79
2021/12/12 00:14:32;;;;;;;28.65;10.40;;;;;;;2.50;100.00;101926.38;5068630;28;20513;-79
2021/12/12 00:16:58;;;;;;;26.65;9.63;;;;;;;2.50;100.00;101921.09;5083901;28;20077;-79
2021/12/12 00:19:27;;;;;;;26.23;9.98;;;;;;;2.47;100.00;101912.38;5086503;28;20044;-79
2021/12/12 00:21:56;;;;;;;29.08;10.30;;;;;;;2.45;100.00;101904.47;5086601;28;20035;-79
2021/12/12 00:24:21;;;;;;;26.45;9.35;;;;;;;2.50;100.00;101907.97;5084603;28;20336;-79
2021/12/12 00:26:50;;;;;;;24.67;9.73;;;;;;;2.52;100.00;101915.88;5068700;28;20028;-79
2021/12/12 00:29:18;;;;;;;26.13;9.77;;;;;;;2.53;100.00;101917.63;5068121;28;20027;-79
2021/12/12 00:31:46;;;;;;;23.83;9.90;;;;;;;2.54;100.00;101918.50;5069727;28;20024;-79
2021/12/12 00:34:12;;;;;;;22.23;9.55;;;;;;;2.57;100.00;101914.09;5081481;28;20038;-79
2021/12/12 00:36:40;;;;;;;22.10;8.80;;;;;;;2.55;100.00;101907.09;5084689;28;20108;-79
2021/12/12 00:39:12;;;;;;;25.15;9.93;;;;;;;2.51;100.00;101895.72;5079374;28;20073;-79
2021/12/12 00:41:53;;;;;;;22.63;8.07;;;;;;;2.62;100.00;101893.06;5069497;28;20039;-79
2021/12/12 00:44:19;;;;;;;22.35;8.85;;;;;;;2.61;100.00;101899.22;5075809;28;20078;-79
2021/12/12 00:46:45;;;;;;;23.40;9.55;;;;;;;2.63;100.00;101903.56;5076428;28;20021;-79
2021/12/12 00:49:13;;;;;;;19.10;9.63;;;;;;;2.66;100.00;101894.81;5068259;28;20032;-79
2021/12/12 00:51:41;;;;;;;24.15;9.32;;;;;;;2.65;100.00;101885.19;5076257;28;20097;-79
2021/12/12 00:54:10;;;;;;;20.63;9.32;;;;;;;2.62;100.00;101882.56;5072554;28;20036;-78
2021/12/12 00:56:35;;;;;;;22.15;9.23;;;;;;;2.68;100.00;101883.44;5073288;28;20016;-79
2021/12/12 00:59:03;;;;;;;20.60;9.18;;;;;;;2.72;100.00;101892.19;5067436;28;20423;-78
2021/12/12 01:01:35;;;;;;;27.02;9.55;;;;;;;2.72;100.00;101889.56;5077347;28;20032;-78
2021/12/12 01:04:05;;;;;;;21.20;9.02;;;;;;;2.71;100.00;101885.16;5072133;28;20035;-78
2021/12/12 01:06:30;;;;;;;25.02;8.70;;;;;;;2.72;100.00;101884.31;5074272;28;20025;-78
2021/12/12 01:09:00;;;;;;;19.92;9.52;;;;;;;2.71;100.00;101872.91;5078957;28;20427;-79
2021/12/12 01:11:33;;;;;;;33.60;9.70;;;;;;;2.71;100.00;101872.03;5069279;28;20052;-79
2021/12/12 01:14:00;;;;;;;25.90;9.35;;;;;;;2.68;100.00;101874.69;5068293;28;20039;-79
2021/12/12 01:16:40;;;;;;;26.10;9.73;;;;;;;2.61;100.00;101858.03;5080766;28;20607;-79
2021/12/12 01:19:31;;;;;;;26.48;10.10;;;;;;;2.61;100.00;101865.03;5087359;28;20044;-78
2021/12/12 01:22:02;;;;;;;24.92;10.35;;;;;;;2.61;100.00;101865.91;5072980;28;20226;-79
2021/12/12 01:24:33;;;;;;;27.50;9.43;;;;;;;2.62;100.00;101870.28;5082870;28;20445;-79
2021/12/12 01:26:59;;;;;;;28.48;9.90;;;;;;;2.62;100.00;101867.66;5073523;28;20059;-79
2021/12/12 01:29:26;;;;;;;28.13;11.00;;;;;;;2.62;100.00;101870.28;5071446;28;20389;-78
2021/12/12 01:31:54;;;;;;;24.23;10.32;;;;;;;2.62;100.00;101869.41;5077400;28;20073;-79
2021/12/12 01:34:25;;;;;;;23.80;9.55;;;;;;;2.65;100.00;101872.06;5091651;28;20032;-79
2021/12/12 01:39:26;;;;;;;23.00;11.45;;;;;;;2.65;100.00;101872.94;5077617;28;20294;-79
2021/12/12 01:41:59;;;;;;;24.60;10.10;;;;;;;2.66;100.00;101876.41;5081634;28;20032;-78
2021/12/12 01:44:37;;;;;;;24.90;10.07;;;;;;;2.68;100.00;101878.19;5077458;28;20090;-78
2021/12/12 01:47:14;;;;;;;31.50;10.55;;;;;;;2.67;100.00;101868.53;5085538;28;20013;-79
2021/12/12 01:49:44;;;;;;;24.83;10.27;;;;;;;2.70;100.00;101867.66;5071347;28;20021;-78
2021/12/12 01:52:17;;;;;;;30.13;11.30;;;;;;;2.69;100.00;101865.91;5082493;28;20063;-78
2021/12/12 01:54:45;;;;;;;31.77;11.23;;;;;;;2.69;100.00;101871.16;5091055;28;20102;-79
2021/12/12 01:57:16;;;;;;;26.77;10.77;;;;;;;2.66;100.00;101855.41;5070357;28;20056;-78
2021/12/12 01:59:44;;;;;;;30.30;10.88;;;;;;;2.73;100.00;101867.66;5087197;28;20360;-78
2021/12/12 02:02:15;;;;;;;23.55;10.10;;;;;;;2.74;100.00;101875.53;5084626;28;20036;-78
2021/12/12 02:04:48;;;;;;;26.83;11.40;;;;;;;2.72;100.00;101865.91;5076459;28;20028;-77
2021/12/12 02:07:16;;;;;;;25.87;10.53;;;;;;;2.77;100.00;101871.16;5071119;28;20020;-77
2021/12/12 02:09:43;;;;;;;28.92;10.32;;;;;;;2.78;100.00;101873.78;5077663;28;20278;-77
2021/12/12 02:12:10;;;;;;;24.13;10.38;;;;;;;2.77;100.00;101872.03;5086142;28;20074;-77
2021/12/12 02:14:38;;;;;;;22.80;9.75;;;;;;;2.79;100.00;101866.75;5082880;28;20107;-77
2021/12/12 02:17:14;;;;;;;22.90;9.38;;;;;;;2.80;100.00;101872.03;5072967;28;20028;-77
2021/12/12 02:20:29;;;;;;;34.72;11.52;;;;;;;2.79;100.00;101856.25;5070059;28;20059;-76
2021/12/12 02:22:45;;;;;;;24.08;10.18;;;;;;;2.81;100.00;101855.38;5077261;28;20163;-77
2021/12/12 02:36:13;;;;;;;26.27;10.10;;;;;;;2.89;100.00;101843.06;5089737;28;20116;-76
2021/12/12 02:38:41;;;;;;;27.25;11.30;;;;;;;2.91;100.00;101850.94;5071444;28;20262;-77
2021/12/12 02:41:13;;;;;;;28.08;10.98;;;;;;;2.91;100.00;101846.56;5079936;28;20024;-77
2021/12/12 02:43:43;;;;;;;24.98;9.57;;;;;;;2.96;100.00;101859.69;5069995;28;20028;-76
2021/12/12 02:46:09;;;;;;;32.42;10.35;;;;;;;2.98;100.00;101860.56;5073971;28;20031;-76
2021/12/12 02:48:39;;;;;;;32.88;11.18;;;;;;;2.98;100.00;101850.06;5088517;28;20497;-76
2021/12/12 02:51:08;;;;;;;24.52;9.63;;;;;;;2.97;100.00;101849.19;5076084;28;20022;-76
2021/12/12 02:53:44;;;;;;;29.02;10.50;;;;;;;3.01;100.00;101844.78;5069652;28;20099;-76
2021/12/12 02:56:23;;;;;;;28.85;9.85;;;;;;;2.99;100.00;101829.00;5069472;28;20401;-75
2021/12/12 02:58:49;;;;;;;29.75;10.60;;;;;;;3.04;100.00;101826.34;5077388;28;20505;-77
2021/12/12 03:01:22;;;;;;;25.33;10.18;;;;;;;3.10;100.00;101836.00;5074329;28;20027;-77
2021/12/12 03:03:49;;;;;;;28.23;9.77;;;;;;;3.08;100.00;101824.59;5069473;28;20028;-76
2021/12/12 03:06:20;;;;;;;25.73;9.68;;;;;;;3.12;100.00;101829.81;5068722;28;20025;-76
2021/12/12 03:08:48;;;;;;;26.25;9.25;;;;;;;3.14;100.00;101824.56;5078760;28;20028;-77
2021/12/12 03:11:14;;;;;;;26.67;9.48;;;;;;;3.13;100.00;101820.16;5078088;28;20032;-76
2021/12/12 03:13:41;;;;;;;22.52;10.20;;;;;;;3.18;100.00;101819.28;5089208;28;20028;-76
2021/12/12 03:16:07;;;;;;;27.08;10.10;;;;;;;3.18;100.00;101814.03;5088379;28;20054;-76
2021/12/12 03:18:40;;;;;;;26.58;8.77;;;;;;;3.21;100.00;101819.25;5070642;28;20050;-76
2021/12/12 03:21:17;;;;;;;27.60;9.00;;;;;;;3.24;100.00;101829.75;5076468;28;20089;-76
2021/12/12 03:23:49;;;;;;;23.42;8.90;;;;;;;3.28;100.00;101814.84;5073955;28;20032;-76
2021/12/12 03:26:16;;;;;;;33.38;9.10;;;;;;;3.30;100.00;101818.31;5076650;28;20119;-77
2021/12/12 03:28:45;;;;;;;29.17;9.13;;;;;;;3.33;100.00;101822.72;5068692;28;20497;-76
2021/12/12 03:31:25;;;;;;;23.42;8.77;;;;;;;3.35;100.00;101818.31;5075417;28;20068;-76
2021/12/12 03:33:51;;;;;;;29.13;8.73;;;;;;;3.41;100.00;101815.66;5084304;28;20050;-77
2021/12/12 03:36:17;;;;;;;33.25;9.20;;;;;;;3.40;100.00;101799.00;5086283;28;20027;-77
2021/12/12 03:38:47;;;;;;;23.35;7.85;;;;;;;3.45;100.00;101809.47;5076582;28;20286;-77
2021/12/12 03:41:16;;;;;;;26.08;8.88;;;;;;;3.45;100.00;101802.47;5078359;28;20054;-77
2021/12/12 03:43:42;;;;;;;26.38;9.38;;;;;;;3.47;100.00;101797.22;5085404;28;20074;-77
2021/12/12 03:46:10;;;;;;;37.47;9.63;;;;;;;3.39;100.00;101775.31;5070986;28;20409;-76
2021/12/12 03:48:39;;;;;;;24.45;9.30;;;;;;;3.50;100.00;101789.25;5072571;28;20055;-77
2021/12/12 03:51:08;;;;;;;27.77;9.25;;;;;;;3.52;100.00;101798.03;5076929;28;20055;-77
2021/12/12 03:53:36;;;;;;;22.77;9.48;;;;;;;3.49;100.00;101782.25;5072846;28;20024;-77
2021/12/12 03:56:03;;;;;;;21.60;8.55;;;;;;;3.52;100.00;101786.66;5080813;28;20028;-77
2021/12/12 03:58:29;;;;;;;21.40;9.07;;;;;;;3.56;100.00;101786.59;5088542;28;20042;-77
2021/12/12 04:00:57;;;;;;;25.92;9.57;;;;;;;3.57;100.00;101780.44;5074661;28;20504;-77
2021/12/12 04:03:22;;;;;;;19.85;9.07;;;;;;;3.52;100.00;101786.66;5083262;28;20505;-78
2021/12/12 04:05:54;;;;;;;22.90;9.40;;;;;;;3.59;100.00;101780.44;5069140;28;20036;-78
2021/12/12 04:08:34;;;;;;;22.27;9.07;;;;;;;3.60;100.00;101798.88;5050529;28;20024;-78
2021/12/12 04:11:02;;;;;;;30.85;9.02;;;;;;;3.54;100.00;101791.00;5077486;28;20036;-77
2021/12/12 04:13:27;;;;;;;19.40;9.15;;;;;;;3.63;100.00;101792.69;5068853;28;20028;-78
2021/12/12 04:15:55;;;;;;;20.73;9.10;;;;;;;3.64;100.00;101800.59;5070954;28;20025;-78
2021/12/12 04:18:23;;;;;;;28.13;9.75;;;;;;;3.67;100.00;101797.03;5086106;28;20439;-77
2021/12/12 04:20:48;;;;;;;25.05;10.57;;;;;;;3.69;100.00;101797.94;5087245;28;20036;-78
2021/12/12 04:23:20;;;;;;;25.58;9.30;;;;;;;3.68;100.00;101804.97;5069371;28;20677;-78
2021/12/12 04:25:46;;;;;;;25.85;9.50;;;;;;;3.71;100.00;101799.66;5068059;28;20483;-78
2021/12/12 04:28:11;;;;;;;19.65;8.95;;;;;;;3.72;100.00;101792.63;5068293;28;20052;-79
2021/12/12 04:30:37;;;;;;;19.83;9.73;;;;;;;3.68;100.00;101801.44;5073105;28;20028;-78
2021/12/12 04:33:03;;;;;;;20.17;9.88;;;;;;;3.70;100.00;101800.53;5068991;28;20029;-77
2021/12/12 04:35:29;;;;;;;22.00;10.00;;;;;;;3.74;100.00;101804.91;5080573;28;20506;-78
2021/12/12 04:37:57;;;;;;;21.45;10.45;;;;;;;3.72;100.00;101805.78;5074095;28;20103;-77
2021/12/12 04:40:25;;;;;;;21.05;10.43;;;;;;;3.67;100.00;101797.91;5080881;28;20131;-78
2021/12/12 04:42:53;;;;;;;21.13;10.80;;;;;;;3.70;100.00;101787.38;5076014;28;20032;-78
2021/12/12 04:45:41;;;;;;;18.65;10.00;;;;;;;3.74;100.00;101798.75;5086695;28;20032;-78
2021/12/12 04:51:13;;;;;;;18.65;10.35;;;;;;;3.73;100.00;101802.28;5080587;28;20550;-78
2021/12/12 04:53:51;;;;;;;22.80;10.77;;;;;;;3.78;100.00;101804.88;5072005;28;20060;-78
2021/12/12 04:56:25;;;;;;;18.80;10.30;;;;;;;3.81;100.00;101810.13;5074169;28;20040;-78
2021/12/12 04:59:10;;;;;;;19.40;10.73;;;;;;;3.81;100.00;101811.00;5071833;28;20108;-78
2021/12/12 05:02:01;;;;;;;23.25;10.57;;;;;;;3.79;100.00;101810.13;5089444;28;20032;-78
2021/12/12 05:04:35;;;;;;;18.98;9.98;;;;;;;3.79;100.00;101807.50;5010026;28;20604;-78
2021/12/12 05:07:11;;;;;;;;;;;;;;;3.78;100.00;101802.25;5010246;28;20065;-78
2021/12/12 05:09:56;;;;;;;19.17;10.95;;;;;;;3.78;100.00;101810.16;5025252;28;19921;-78
2021/12/12 05:12:28;;;;;;;19.45;11.00;;;;;;;3.79;100.00;101812.75;5022125;28;20103;-78
2021/12/12 05:15:04;;;;;;;21.95;12.32;;;;;;;3.80;100.00;101811.88;5009151;28;20036;-78
2021/12/12 05:17:39;;;;;;;20.25;12.18;;;;;;;3.82;100.00;101807.47;5014733;28;20073;-78
2021/12/12 05:20:10;;;;;;;21.60;11.27;;;;;;;3.78;100.00;101805.75;5014569;28;20049;-78
2021/12/12 05:22:42;;;;;;;25.35;12.50;;;;;;;3.82;100.00;101815.38;5029167;28;20124;-78
2021/12/12 05:25:16;;;;;;;21.85;12.07;;;;;;;3.83;100.00;101825.03;5026645;28;20120;-78
2021/12/12 05:27:43;;;;;;;20.83;12.85;;;;;;;3.83;100.00;101824.16;5020976;28;20033;-78
2021/12/12 05:30:16;;;;;;;19.83;12.95;;;;;;;3.87;100.00;101823.25;5012552;28;20145;-78
2021/12/12 05:32:41;;;;;;;22.83;14.20;;;;;;;3.84;100.00;101810.97;5019495;28;20145;-78
2021/12/12 05:35:09;;;;;;;24.73;14.48;;;;;;;3.89;100.00;101824.13;5008418;28;20404;-79
2021/12/12 05:37:36;;;;;;;26.17;15.00;;;;;;;3.88;100.00;101828.47;5009132;28;20440;-78
2021/12/12 05:40:06;;;;;;;27.17;15.30;;;;;;;3.90;100.00;101817.97;5014330;28;20034;-79
2021/12/12 05:42:32;;;;;;;24.73;15.15;;;;;;;3.89;100.00;101816.22;5074442;28;20127;-78
2021/12/12 05:44:59;;;;;;;28.70;15.18;;;;;;;3.92;100.00;101824.94;5076961;28;20111;-78
2021/12/12 05:47:24;;;;;;;24.25;15.38;;;;;;;3.93;100.00;101826.72;5087938;28;20481;-78
2021/12/12 05:49:50;;;;;;;25.02;15.23;;;;;;;3.94;100.00;101824.94;5089910;28;20024;-79
2021/12/12 05:52:18;;;;;;;25.42;17.23;;;;;;;3.93;100.00;101810.91;5074197;28;20099;-79
2021/12/12 05:54:46;;;;;;;28.83;16.65;;;;;;;3.93;100.00;101818.81;5087532;28;20055;-79
2021/12/12 05:57:12;;;;;;;23.90;17.17;;;;;;;3.93;100.00;101821.44;5070481;28;20096;-79
2021/12/12 05:59:39;;;;;;;25.73;16.25;;;;;;;3.99;100.00;101837.19;5086749;28;20287;-79
2021/12/12 06:02:06;;;;;;;28.05;16.63;;;;;;;3.97;100.00;101823.16;5078075;28;20063;-78
2021/12/12 06:04:33;;;;;;;27.17;15.88;;;;;;;4.03;100.00;101838.03;5055736;28;20024;-78
2021/12/12 06:07:02;;;;;;;27.95;17.27;;;;;;;4.06;100.00;101834.53;5090540;28;20035;-78
2021/12/12 06:09:29;;;;;;;26.20;17.23;;;;;;;4.06;100.00;101832.75;5076073;28;20026;-78
2021/12/12 06:11:54;;;;;;;27.30;16.30;;;;;;;4.05;100.00;101845.94;5089521;28;20085;-78
2021/12/12 06:14:23;;;;;;;29.40;17.95;;;;;;;4.06;100.00;101838.03;5088232;28;20028;-78
2021/12/12 06:16:49;;;;;;;24.90;16.95;;;;;;;4.07;100.00;101837.13;5081327;28;20024;-78
2021/12/12 06:19:18;;;;;;;27.40;16.33;;;;;;;4.10;100.00;101839.75;5084961;28;20048;-78
2021/12/12 06:21:48;;;;;;;25.02;16.70;;;;;;;4.15;100.00;101847.63;5070063;28;20090;-77
2021/12/12 06:24:14;;;;;;;29.88;16.98;;;;;;;4.15;100.00;101844.97;5070101;28;20425;-78
2021/12/12 06:26:39;;;;;;;24.92;16.42;;;;;;;4.19;100.00;101844.06;5070478;28;20055;-78
2021/12/12 06:29:05;;;;;;;25.48;16.92;;;;;;;4.24;100.00;101850.16;5086088;28;20058;-78
2021/12/12 06:31:31;;;;;;;25.92;16.73;;;;;;;4.23;100.00;101861.59;5079413;28;20111;-78
2021/12/12 06:33:56;;;;;;;25.92;15.98;;;;;;;4.24;100.00;101851.03;5082815;28;20495;-78
2021/12/12 06:36:23;;;;;;;27.33;16.15;;;;;;;4.27;100.00;101846.66;5089067;28;20032;-79
2021/12/12 06:38:51;;;;;;;26.60;15.93;;;;;;;4.27;100.00;101844.88;5071314;28;20035;-78
2021/12/12 06:41:18;;;;;;;29.17;17.38;;;;;;;4.28;100.00;101848.38;5076086;28;20028;-77
2021/12/12 06:43:44;;;;;;;21.05;16.40;;;;;;;4.29;100.00;101855.41;5070328;28;20024;-78
2021/12/12 06:46:11;;;;;;;25.98;15.88;;;;;;;4.31;100.00;101853.63;5082461;28;20485;-79
2021/12/12 06:48:39;;;;;;;27.55;16.13;;;;;;;4.34;100.00;101848.31;5073722;28;20104;-78
2021/12/12 06:51:04;;;;;;;24.90;15.95;;;;;;;4.36;100.00;101857.97;5088501;28;20032;-78
2021/12/12 06:53:33;;;;;;;26.85;15.07;;;;;;;4.39;100.00;101855.31;5074659;28;20034;-78
2021/12/12 06:55:59;;;;;;;24.60;15.77;;;;;;;4.39;100.00;101849.13;5051835;28;20028;-78
2021/12/12 06:58:29;;;;;;;25.50;16.40;;;;;;;4.41;100.00;101855.28;5069690;28;20032;-78
2021/12/12 07:01:00;;;;;;;25.73;15.32;;;;;;;4.41;100.00;101856.16;5077221;28;20036;-78
2021/12/12 07:03:26;;;;;;;28.38;15.55;;;;;;;4.44;100.00;101860.53;5073652;28;20071;-78
2021/12/12 07:05:52;;;;;;;26.33;15.18;;;;;;;4.46;100.00;101864.88;5068925;28;20067;-78
2021/12/12 07:08:21;;;;;;;30.75;15.43;;;;;;;4.47;100.00;101864.03;5073708;28;20028;-78
2021/12/12 07:10:46;;;;;;;25.23;15.23;;;;;;;4.48;100.00;101864.91;5081072;28;20074;-78
2021/12/12 07:13:13;;;;;;;26.05;14.70;;;;;;;4.54;100.00;101870.09;5077286;28;20534;-78
2021/12/12 07:15:49;;;;;;;27.38;14.85;;;;;;;4.56;100.00;101872.75;5083968;28;20028;-78
2021/12/12 07:18:16;;;;;;;23.40;14.63;;;;;;;4.51;100.00;101854.28;5063932;28;20024;-78
2021/12/12 07:20:46;;;;;;;25.48;16.08;;;;;;;4.59;100.00;101870.03;5087407;28;20504;-79
2021/12/12 07:23:13;;;;;;;28.05;15.38;;;;;;;4.54;100.00;101861.31;5085777;28;20419;-78
2021/12/12 07:25:40;;;;;;;29.38;17.08;;;;;;;4.58;100.00;101861.28;5089357;28;20511;-78
2021/12/12 07:28:07;;;;;;;27.20;16.33;;;;;;;4.61;100.00;101869.16;5080540;28;20043;-79
2021/12/12 07:30:34;;;;;;;24.77;15.82;;;;;;;4.65;100.00;101864.72;5076745;28;20024;-78
2021/12/12 07:33:00;;;;;;;28.35;17.17;;;;;;;4.66;100.00;101866.47;5087070;28;20047;-78
2021/12/12 07:35:26;;;;;;;30.48;16.52;;;;;;;4.65;100.00;101870.88;5072885;28;20477;-78
2021/12/12 07:37:52;;;;;;;27.10;16.80;;;;;;;4.70;100.00;101870.81;5080786;28;20299;-78
2021/12/12 07:40:20;;;;;;;26.63;16.23;;;;;;;4.69;100.00;101864.69;5086667;28;20063;-78
2021/12/12 07:42:46;;;;;;;24.52;16.52;;;;;;;4.71;100.00;101864.66;5076512;28;20030;-78
2021/12/12 07:45:13;;;;;;;26.35;16.27;;;;;;;4.73;100.00;101866.41;5073314;28;20077;-79
2021/12/12 07:47:38;;;;;;;29.23;17.25;;;;;;;4.76;100.00;101868.09;5054273;28;20130;-79
2021/12/12 07:50:07;;;;;;;30.45;17.60;;;;;;;4.82;100.00;101873.34;5075650;28;20020;-79
2021/12/12 07:52:32;;;;;;;30.55;17.60;;;;;;;4.81;100.00;101882.16;5088997;28;20025;-79
2021/12/12 07:54:59;;;;;;;30.40;17.67;;;;;;;4.83;100.00;101875.06;5082443;28;20028;-79
2021/12/12 07:57:27;;;;;;;28.92;17.52;;;;;;;4.81;100.00;101874.25;5068319;28;20025;-78
2021/12/12 07:59:53;;;;;;;30.25;17.95;;;;;;;4.84;100.00;101881.22;5085195;28;20028;-78
2021/12/12 08:02:20;;;;;;;28.65;19.17;;;;;;;4.86;100.00;101884.75;5067805;28;20033;-79
2021/12/12 08:04:47;;;;;;;30.48;17.35;;;;;;;4.90;100.00;101881.19;5074565;28;20373;-78
2021/12/12 08:07:16;;;;;;;28.52;18.17;;;;;;;4.90;100.00;101889.97;5063770;28;20024;-79
2021/12/12 08:09:43;;;;;;;33.03;18.70;;;;;;;4.92;100.00;101895.22;5083515;28;20125;-79
2021/12/12 08:12:12;;;;;;;29.00;19.02;;;;;;;4.94;100.00;101893.44;5067730;28;20024;-79
2021/12/12 08:14:38;;;;;;;33.70;19.05;;;;;;;4.95;100.00;101887.28;5068307;28;20020;-79
2021/12/12 08:17:06;;;;;;;30.42;18.83;;;;;;;4.99;100.00;101896.91;5067530;28;20028;-79
2021/12/12 08:19:31;;;;;;;29.23;17.80;;;;;;;5.03;100.00;101900.38;5080214;28;20479;-79
2021/12/12 08:22:02;;;;;;;36.00;18.98;;;;;;;5.04;100.00;101899.47;5068773;28;20107;-79
2021/12/12 08:24:29;;;;;;;31.75;18.52;;;;;;;5.06;100.00;101902.97;5088324;28;20089;-78
2021/12/12 08:26:55;;;;;;;33.33;17.58;;;;;;;5.05;100.00;101891.53;5081846;28;20039;-78
2021/12/12 08:29:21;;;;;;;32.92;18.60;;;;;;;5.10;100.00;101910.84;5059631;28;20028;-78
2021/12/12 08:31:47;;;;;;;33.08;19.27;;;;;;;5.11;100.00;101903.81;5083438;28;20032;-78
2021/12/12 08:34:13;;;;;;;35.67;18.05;;;;;;;5.14;100.00;101917.84;5075837;28;20019;-78
2021/12/12 08:36:44;;;;;;;31.90;19.10;;;;;;;5.20;100.00;101927.44;5078797;28;20032;-78
2021/12/12 08:39:12;;;;;;;34.75;18.17;;;;;;;5.22;100.00;101926.56;5055140;28;20493;-78
2021/12/12 08:41:41;;;;;;;38.92;19.90;;;;;;;5.21;100.00;101924.78;5081457;28;20019;-78
2021/12/12 08:44:08;;;;;;;30.13;18.08;;;;;;;5.25;100.00;101929.13;5079792;28;20556;-78
2021/12/12 08:46:36;;;;;;;35.40;19.65;;;;;;;5.24;100.00;101935.31;5077662;28;20111;-78
2021/12/12 08:49:05;;;;;;;34.60;18.13;;;;;;;5.23;100.00;101927.44;5083741;28;20027;-79
2021/12/12 08:51:36;;;;;;;32.78;18.10;;;;;;;5.27;100.00;101937.06;5086427;28;20024;-79
2021/12/12 08:54:14;;;;;;;33.50;18.83;;;;;;;5.29;100.00;101937.91;5081809;28;20495;-79
2021/12/12 08:56:45;;;;;;;38.33;18.65;;;;;;;5.30;100.00;101942.28;5072426;28;20032;-79
2021/12/12 08:59:17;;;;;;;31.00;18.33;;;;;;;5.30;100.00;101936.13;5082250;28;20028;-78
2021/12/12 09:01:44;;;;;;;33.20;18.17;;;;;;;5.30;100.00;101944.91;5060120;28;20036;-78
2021/12/12 09:04:10;;;;;;;39.33;19.80;;;;;;;5.35;100.00;101945.75;5086009;28;20107;-78
2021/12/12 09:06:43;;;;;;;34.60;21.25;;;;;;;5.36;100.00;101954.56;5073201;28;20029;-78
2021/12/12 09:09:18;;;;;;;44.38;21.60;;;;;;;5.37;100.00;101956.28;5085806;28;20066;-78
2021/12/12 09:11:49;;;;;;;38.22;21.27;;;;;;;5.41;100.00;101948.31;5087637;28;20028;-78
2021/12/12 09:14:36;;;;;;;43.08;21.92;;;;;;;5.40;100.00;101951.84;5086769;28;20060;-78
2021/12/12 09:17:07;;;;;;;43.92;21.63;;;;;;;5.36;100.00;101952.78;5076896;28;20024;-78
2021/12/12 09:19:37;;;;;;;45.25;23.13;;;;;;;5.44;100.00;101964.13;5082235;28;20101;-78
2021/12/12 09:22:30;;;;;;;41.97;23.40;;;;;;;5.45;100.00;101959.72;5078480;28;20021;-77
2021/12/12 09:25:10;;;;;;;42.90;22.60;;;;;;;5.50;100.00;101958.75;5078779;28;20474;-78
2021/12/12 09:27:40;;;;;;;41.90;22.67;;;;;;;5.44;100.00;101955.34;5080153;28;20028;-77
2021/12/12 09:30:14;;;;;;;44.10;23.98;;;;;;;5.53;100.00;101970.19;5080381;28;20105;-78
2021/12/12 09:32:52;;;;;;;43.03;23.48;;;;;;;5.54;100.00;101978.09;5077140;28;20025;-77
2021/12/12 09:35:25;;;;;;;44.58;22.65;;;;;;;5.55;100.00;101977.19;5073094;28;20047;-78
2021/12/12 09:37:54;;;;;;;41.70;22.90;;;;;;;5.57;100.00;101980.72;5084822;28;20021;-77
2021/12/12 09:40:57;;;;;;;41.83;22.45;;;;;;;5.58;100.00;101978.94;5064891;28;20447;-78
2021/12/12 09:43:49;;;;;;;36.70;20.83;;;;;;;5.59;100.00;101986.81;5088069;28;20067;-78
2021/12/12 09:46:40;;;;;;;39.83;21.83;;;;;;;5.62;100.00;101985.94;5081937;28;20076;-78
2021/12/12 09:52:50;;;;;;;35.25;20.40;;;;;;;5.67;100.00;101981.47;5071064;28;20047;-78
2021/12/12 09:55:25;;;;;;;38.80;20.58;;;;;;;5.70;100.00;101982.28;5088225;28;20115;-78
2021/12/12 09:58:02;;;;;;;41.75;21.40;;;;;;;5.73;100.00;101987.56;5071403;28;20544;-78
2021/12/12 10:00:43;;;;;;;38.97;20.70;;;;;;;5.74;100.00;101981.38;5077269;28;20093;-78
2021/12/12 10:03:16;;;;;;;36.85;19.85;;;;;;;5.79;100.00;101991.88;5088062;28;20032;-78
2021/12/12 10:06:04;;;;;;;33.60;18.50;;;;;;;5.81;100.00;101989.19;5088418;28;20051;-78
2021/12/12 10:08:42;;;;;;;37.78;19.13;;;;;;;5.86;100.00;101988.28;5082894;28;20032;-78
2021/12/12 10:11:30;;;;;;;33.83;19.90;;;;;;;5.85;100.00;101978.59;5075003;28;20028;-78
2021/12/12 10:14:05;;;;;;;35.40;20.50;;;;;;;5.92;100.00;101989.97;5086057;28;20043;-78
2021/12/12 10:17:03;;;;;;;36.90;17.70;;;;;;;5.92;100.00;101984.69;5090940;28;20028;-79
2021/12/12 10:19:43;;;;;;;33.10;18.42;;;;;;;5.93;100.00;101978.50;5076298;28;20052;-79
2021/12/12 10:22:20;;;;;;;36.75;19.05;;;;;;;5.97;100.00;101982.84;5083065;28;20044;-79
2021/12/12 10:24:58;;;;;;;32.63;17.60;;;;;;;5.96;100.00;101981.13;5075405;28;20107;-78
2021/12/12 10:27:45;;;;;;;30.58;17.88;;;;;;;5.99;100.00;101989.88;5083672;28;20024;-78
2021/12/12 10:30:23;;;;;;;34.00;18.30;;;;;;;5.96;100.00;101981.97;5086510;28;20077;-79
2021/12/12 10:33:20;;;;;;;34.65;18.98;;;;;;;6.05;100.00;101988.91;5070778;28;20024;-78
2021/12/12 10:36:01;;;;;;;37.83;19.63;;;;;;;6.08;100.00;101996.81;5069978;28;20108;-78
2021/12/12 10:38:37;;;;;;;38.60;18.63;;;;;;;6.06;100.00;101979.22;5072411;28;20051;-79
2021/12/12 10:41:22;;;;;;;32.53;17.50;;;;;;;6.06;100.00;101982.75;5088506;28;20032;-79
2021/12/12 10:43:59;;;;;;;36.95;18.90;;;;;;;6.06;100.00;101988.03;5088376;28;20489;-79
2021/12/12 10:46:40;;;;;;;36.85;19.67;;;;;;;6.13;100.00;101992.31;5088552;28;20028;-78
2021/12/12 10:49:13;;;;;;;38.67;19.27;;;;;;;6.15;100.00;101992.31;5088863;28;20046;-80
2021/12/12 10:51:45;;;;;;;40.00;18.02;;;;;;;6.18;100.00;101981.69;5089498;28;20024;-79
2021/12/12 10:54:17;;;;;;;37.50;19.67;;;;;;;6.23;100.00;101987.81;5076098;28;20576;-79
2021/12/12 10:56:52;;;;;;;35.75;17.52;;;;;;;6.25;100.00;101983.34;5071693;28;22635;-79
2021/12/12 10:59:27;;;;;;;30.30;17.45;;;;;;;6.25;100.00;101986.00;5072244;28;20032;-79
2021/12/12 11:01:56;;;;;;;35.05;18.17;;;;;;;6.27;100.00;101991.25;5080385;28;20028;-79
2021/12/12 11:04:32;;;;;;;43.05;19.45;;;;;;;6.28;100.00;101980.66;5089647;28;20023;-80
2021/12/12 11:07:04;;;;;;;39.95;19.25;;;;;;;6.30;100.00;101984.16;5085984;28;20020;-79
2021/12/12 11:09:54;;;;;;;32.35;17.63;;;;;;;6.30;100.00;101981.50;5090032;28;20044;-80
2021/12/12 11:12:33;;;;;;;36.33;18.27;;;;;;;6.38;100.00;101984.91;5088026;28;20032;-79
2021/12/12 11:15:19;;;;;;;34.17;17.65;;;;;;;6.44;100.00;101989.25;5078265;28;20035;-79
2021/12/12 11:18:02;;;;;;;37.00;18.02;;;;;;;6.48;100.00;101998.88;5079249;28;20077;-80
2021/12/12 11:20:42;;;;;;;38.15;18.52;;;;;;;6.49;100.00;101985.63;5069387;28;20040;-79
2021/12/12 11:23:20;;;;;;;33.22;17.67;;;;;;;6.49;100.00;101992.69;5068729;28;20033;-80
2021/12/12 11:25:55;;;;;;;31.70;16.63;;;;;;;6.46;100.00;101987.44;5052070;28;20115;-80
2021/12/12 11:28:29;;;;;;;29.50;17.02;;;;;;;6.51;100.00;101995.28;5085702;28;20024;-80
2021/12/12 11:31:04;;;;;;;30.85;16.90;;;;;;;6.52;100.00;101984.72;5089629;28;20417;-80
2021/12/12 11:33:32;;;;;;;30.70;16.85;;;;;;;6.52;100.00;101975.88;5089378;28;20031;-80
2021/12/12 11:36:01;;;;;;;30.70;18.25;;;;;;;6.56;100.00;101977.56;5088724;28;20147;-79
2021/12/12 11:39:00;;;;;;;31.30;18.02;;;;;;;6.61;100.00;101981.03;5077227;28;20024;-80
2021/12/12 11:41:38;;;;;;;28.50;14.60;;;;;;;6.66;100.00;101979.19;5068255;28;20081;-80
2021/12/12 11:44:15;;;;;;;27.25;15.88;;;;;;;6.64;100.00;101978.31;5071423;28;20012;-81
2021/12/12 11:46:56;;;;;;;28.10;15.40;;;;;;;6.69;100.00;101976.50;5088081;28;20020;-81
2021/12/12 11:49:31;;;;;;;27.65;14.45;;;;;;;6.74;100.00;101990.53;5071919;28;20028;-79
2021/12/12 11:52:05;;;;;;;25.52;14.50;;;;;;;6.74;100.00;101986.09;5079754;28;20039;-78